Terminal Aerodrome Forecast
Issued by NWS Pendleton, OR

Home | Current Version | Previous Version | Text Only | Print | Product List | Glossary On
Versions: 1 2 3 4 5 6 7 8 9 10 11 12 13 14 15 16 17 18 19
000
FTUS46 KPDT 081736
TAFPDT
TAF
KPDT 081736Z 0818/0918 11006KT 6SM BR SCT050 OVC080
     FM082100 35008KT 4SM -SN BR SCT020 OVC040
     FM082300 02009KT 2SM -SN BR SCT003 OVC012
      TEMPO 0823/0903 1/2SM SN FZFG VV003
     FM090800 30007KT 3SM -SNPL SCT003 OVC008=

USA.gov is the U.S. government's official web portal to all federal, state and local government web resources and services.